KRFD/RFD METAR and TAF weather

Enter ICAO airport designator
Station Type Date Time Source
KRFD METAR 2020/09/24 09:54 UTC NOAA

KRFD 240954Z 16003KT 10SM CLR 13/11 A2995 RMK AO2 SLP140 T01280106


Station Type Date Time Source
KRFD Decoded METAR 2020/09/24 09:54 UTC NOAA

GREATER ROCKFORD AIRPORT, IL, United States (KRFD) 42-12N 89-06W 221M
Sep 24, 2020 - 05:54 AM EDT / 2020.09.24 0954 UTC
Wind: from the SSE (160 degrees) at 3 MPH (3 KT):0
Visibility: 10 mile(s):0
Sky conditions: clear
Temperature: 55.0 F (12.8 C)
Dew Point: 51.1 F (10.6 C)
Relative Humidity: 86%
Pressure (altimeter): 29.95 in. Hg (1014 hPa)
ob: KRFD 240954Z 16003KT 10SM CLR 13/11 A2995 RMK AO2 SLP140 T01280106
cycle: 10

Station Type Date Time Source
KRFD TAF 2020/09/24 09:09 UTC NOAA

TAF KRFD 240903Z 2409/2506 18004KT P6SM FEW300
TEMPO 2411/2413 5SM MIFG
FM241600 23010G17KT P6SM SCT045 BKN100 BKN200
FM250100 19005KT P6SM FEW040 SCT100

Example: see airport list